Map

Track Data

SID SEASON NUMBER BASIN SUBBASIN NAME ISO_TIME NATURE LAT LON WMO_WIND WMO_PRES WMO_AGENCY TRACK_TYPE DIST2LAND LANDFALL IFLAG USA_AGENCY USA_ATCF_ID USA_LAT USA_LON USA_RECORD USA_STATUS USA_WIND USA_PRES USA_SSHS USA_R34_NE USA_R34_SE USA_R34_SW USA_R34_NW USA_R50_NE USA_R50_SE USA_R50_SW USA_R50_NW USA_R64_NE USA_R64_SE USA_R64_SW USA_R64_NW USA_POCI USA_ROCI USA_RMW USA_EYE TOKYO_LAT TOKYO_LON TOKYO_GRADE TOKYO_WIND TOKYO_PRES TOKYO_R50_DIR TOKYO_R50_LONG TOKYO_R50_SHORT TOKYO_R30_DIR TOKYO_R30_LONG TOKYO_R30_SHORT TOKYO_LAND CMA_LAT CMA_LON CMA_CAT CMA_WIND CMA_PRES HKO_LAT HKO_LON HKO_CAT HKO_WIND HKO_PRES NEWDELHI_LAT NEWDELHI_LON NEWDELHI_GRADE NEWDELHI_WIND NEWDELHI_PRES NEWDELHI_CI NEWDELHI_DP NEWDELHI_POCI REUNION_LAT REUNION_LON REUNION_TYPE REUNION_WIND REUNION_PRES REUNION_TNUM REUNION_CI REUNION_RMW REUNION_R34_NE REUNION_R34_SE REUNION_R34_SW REUNION_R34_NW REUNION_R50_NE REUNION_R50_SE REUNION_R50_SW REUNION_R50_NW REUNION_R64_NE REUNION_R64_SE REUNION_R64_SW REUNION_R64_NW BOM_LAT BOM_LON BOM_TYPE BOM_WIND BOM_PRES BOM_TNUM BOM_CI BOM_RMW BOM_R34_NE BOM_R34_SE BOM_R34_SW BOM_R34_NW BOM_R50_NE BOM_R50_SE BOM_R50_SW BOM_R50_NW BOM_R64_NE BOM_R64_SE BOM_R64_SW BOM_R64_NW BOM_ROCI BOM_POCI BOM_EYE BOM_POS_METHOD BOM_PRES_METHOD NADI_LAT NADI_LON NADI_CAT NADI_WIND NADI_PRES WELLINGTON_LAT WELLINGTON_LON WELLINGTON_WIND WELLINGTON_PRES DS824_LAT DS824_LON DS824_STAGE DS824_WIND DS824_PRES TD9636_LAT TD9636_LON TD9636_STAGE TD9636_WIND TD9636_PRES TD9635_LAT TD9635_LON TD9635_WIND TD9635_PRES TD9635_ROCI NEUMANN_LAT NEUMANN_LON NEUMANN_CLASS NEUMANN_WIND NEUMANN_PRES MLC_LAT MLC_LON MLC_CLASS MLC_WIND MLC_PRES USA_GUST BOM_GUST BOM_GUST_PER REUNION_GUST REUNION_GUST_PER USA_SEAHGT USA_SEARAD_NE USA_SEARAD_SE USA_SEARAD_SW USA_SEARAD_NW STORM_SPEED STORM_DIR
2021095S15105 2021 17 SI WA ODETTE 2021-04-04 18:00:00 TS -14.7000 104.800 PROVISIONAL 836 836 O_____________ tcgp SH272021 -14.7000 104.800 TS 35 1000 0 45 40 1007 180 45 5 166
2021095S15105 2021 17 SI WA ODETTE 2021-04-04 21:00:00 TS -14.9600 104.867 PROVISIONAL 866 866 P_____________ SH272021 -14.9600 104.867 TS 35 999 0 60 40 1007 185 47 5 169
2021095S15105 2021 17 SI WA ODETTE 2021-04-05 00:00:00 TS -15.2000 104.900 PROVISIONAL 888 888 O_____________ tcgp SH272021 -15.2000 104.900 TS 35 998 0 50 75 40 1007 190 50 5 179
2021095S15105 2021 17 SI WA ODETTE 2021-04-05 03:00:00 TS -15.4075 104.885 PROVISIONAL 910 910 P_____________ SH272021 -15.4075 104.885 TS 37 998 0 60 90 57 1007 190 50 4 0
2021095S15105 2021 17 SI WA ODETTE 2021-04-05 06:00:00 TS -15.6000 104.900 PROVISIONAL 932 932 O_____________ tcgp SH272021 -15.6000 104.900 TS 40 999 0 70 105 75 45 1007 190 50 4 161
2021095S15105 2021 17 SI WA ODETTE 2021-04-05 09:00:00 TS -15.8150 105.035 PROVISIONAL 952 951 P_____________ SH272021 -15.8150 105.035 TS 40 999 0 70 102 77 45 1007 207 55 5 144
2021095S15105 2021 17 SI WA ODETTE 2021-04-05 12:00:00 TS -16.0000 105.200 PROVISIONAL 971 971 O_____________ tcgp SH272021 -16.0000 105.200 TS 40 1000 0 70 100 80 45 1008 225 60 4 140
2021095S15105 2021 17 SI WA ODETTE 2021-04-05 15:00:00 TS -16.1225 105.308 PROVISIONAL 979 979 P_____________ SH272021 -16.1225 105.308 TS 40 999 0 77 102 87 52 1008 225 52 3 136
2021095S15105 2021 17 SI WA ODETTE 2021-04-05 18:00:00 TS -16.2000 105.400 PROVISIONAL 986 984 O_____________ tcgp SH272021 -16.2000 105.400 TS 40 999 0 85 105 95 60 1008 225 45 2 130
2021095S15105 2021 17 SI WA ODETTE 2021-04-05 21:00:00 TS -16.2800 105.500 PROVISIONAL 994 992 P_____________ SH272021 -16.2800 105.500 TS 40 999 0 85 105 95 60 1008 225 45 2 117
2021095S15105 2021 17 SI WA ODETTE 2021-04-06 00:00:00 TS -16.3000 105.600 PROVISIONAL 992 978 O_____________ tcgp SH272021 -16.3000 105.600 TS 40 999 0 85 105 95 60 1008 225 45 2 68
2021095S15105 2021 17 SI WA ODETTE 2021-04-06 03:00:00 TS -16.2000 105.700 PROVISIONAL 978 965 P_____________ SH272021 -16.2000 105.700 TS 40 998 0 85 105 95 70 1007 227 45 3 44
2021095S15105 2021 17 SI WA ODETTE 2021-04-06 06:00:00 TS -16.1000 105.800 PROVISIONAL 965 963 O_____________ tcgp SH272021 -16.1000 105.800 TS 40 997 0 85 105 95 80 1006 230 45 2 69
2021095S15105 2021 17 SI WA ODETTE 2021-04-06 09:00:00 TS -16.1200 105.922 PROVISIONAL 963 960 P_____________ SH272021 -16.1200 105.922 TS 37 997 0 85 107 95 82 1006 230 45 2 117
2021095S15105 2021 17 SI WA ODETTE 2021-04-06 12:00:00 TS -16.2000 106.000 PROVISIONAL 971 971 O_____________ tcgp SH272021 -16.2000 106.000 TS 35 997 0 85 110 95 85 1006 230 45 2 165
2021095S15105 2021 17 SI WA ODETTE 2021-04-06 15:00:00 TS -16.3075 105.980 PROVISIONAL 982 982 P_____________ SH272021 -16.3075 105.980 TS 35 997 0 85 110 95 85 1006 230 45 2 207
2021095S15105 2021 17 SI WA ODETTE 2021-04-06 18:00:00 TS -16.4000 105.900 PROVISIONAL 995 995 O_____________ tcgp SH272021 -16.4000 105.900 TS 35 998 0 85 110 95 85 1006 230 45 2 237
2021095S15105 2021 17 SI WA ODETTE 2021-04-06 21:00:00 TS -16.4300 105.785 PROVISIONAL 998 998 P_____________ SH272021 -16.4300 105.785 TS 37 997 0 75 112 100 77 1006 230 45 2 270
2021095S15105 2021 17 SI WA ODETTE 2021-04-07 00:00:00 TS -16.4000 105.700 PROVISIONAL 1000 989 O_____________ tcgp SH272021 -16.4000 105.700 TS 40 996 0 65 115 105 70 1006 230 45 2 341
2021095S15105 2021 17 SI WA ODETTE 2021-04-07 03:00:00 TS -16.2850 105.728 PROVISIONAL 989 976 P_____________ SH272021 -16.2850 105.728 TS 40 995 0 72 122 97 70 1005 217 40 2 27
2021095S15105 2021 17 SI WA ODETTE 2021-04-07 06:00:00 TS -16.2000 105.800 PROVISIONAL 976 976 O_____________ tcgp SH272021 -16.2000 105.800 TS 40 995 0 80 130 90 70 1005 205 35 1 97
2021095S15105 2021 17 SI WA ODETTE 2021-04-07 09:00:00 TS -16.3000 105.850 PROVISIONAL 987 984 P_____________ SH272021 -16.3000 105.850 TS 40 995 0 75 110 80 60 1005 202 35 2 153
2021095S15105 2021 17 SI WA ODETTE 2021-04-07 12:00:00 TS -16.4000 105.900 PROVISIONAL 995 984 O_____________ tcgp SH272021 -16.4000 105.900 TS 40 996 0 70 90 70 50 1005 200 35 1 108
2021095S15105 2021 17 SI WA ODETTE 2021-04-07 15:00:00 TS -16.3300 105.943 PROVISIONAL 984 971 P_____________ SH272021 -16.3300 105.943 TS 40 995 0 90 1005 200 35 2 27
2021095S15105 2021 17 SI WA ODETTE 2021-04-07 18:00:00 TS -16.2000 106.000 PROVISIONAL 971 956 O_____________ tcgp SH272021 -16.2000 106.000 TS 40 994 0 110 1005 200 35 3 47
2021095S15105 2021 17 SI WA ODETTE 2021-04-07 21:00:00 TS -16.1299 106.168 PROVISIONAL 956 945 P_____________ SH272021 -16.1299 106.168 TS 40 993 0 92 1005 200 32 3 44
2021095S15105 2021 17 SI WA ODETTE 2021-04-08 00:00:00 TS -16.0000 106.200 PROVISIONAL 945 921 O_____________ tcgp SH272021 -16.0000 106.200 TS 40 993 0 65 70 75 65 1005 200 30 5 318
2021095S15105 2021 17 SI WA ODETTE 2021-04-08 03:00:00 TS -15.7304 105.792 PROVISIONAL 921 901 P_____________ SH272021 -15.7304 105.792 TS 37 996 0 65 57 67 75 1005 200 30 10 308
2021095S15105 2021 17 SI WA ODETTE 2021-04-08 06:00:00 TS -15.4000 105.400 PROVISIONAL 901 869 O_____________ tcgp SH272021 -15.4000 105.400 TS 35 999 0 65 45 60 85 1005 200 30 7 330
2021095S15105 2021 17 SI WA ODETTE 2021-04-08 09:00:00 TS -15.0922 105.415 PROVISIONAL 869 827 P_____________ SH272021 -15.0922 105.415 TS 35 999 0 60 40 57 67 1004 177 37 7 26
2021095S15105 2021 17 SI WA ODETTE 2021-04-08 12:00:00 TS -14.8000 105.700 PROVISIONAL 827 783 O_____________ tcgp SH272021 -14.8000 105.700 TS 35 999 0 55 35 55 50 1004 155 45 45 9 51
2021095S15105 2021 17 SI WA ODETTE 2021-04-08 15:00:00 TS -14.5127 106.163 PROVISIONAL 781 748 P_____________ SH272021 -14.5127 106.163 TS 40 995 0 42 40 52 55 1002 117 45 11 63
2021095S15105 2021 17 SI WA ODETTE 2021-04-08 18:00:00 TS -14.3000 106.700 PROVISIONAL 748 732 O_____________ tcgp SH272021 -14.3000 106.700 TS 45 992 0 30 45 50 60 1001 80 45 9 68
2021095S15105 2021 17 SI WA ODETTE 2021-04-08 21:00:00 TS -14.1594 107.048 PROVISIONAL 732 715 P_____________ SH272021 -14.1594 107.048 TS 47 991 0 45 45 52 65 1001 80 32 8 83
2021095S15105 2021 17 SI WA ODETTE 2021-04-09 00:00:00 TS -14.2000 107.500 PROVISIONAL 723 722 O_____________ tcgp SH272021 -14.2000 107.500 TS 50 990 0 60 45 55 70 35 1001 80 20 13 105
2021095S15105 2021 17 SI WA ODETTE 2021-04-09 03:00:00 TS -14.4904 108.290 PROVISIONAL 750 748 P_____________ SH272021 -14.4904 108.290 TS 50 990 0 57 80 52 67 1001 77 20 18 113
2021095S15105 2021 17 SI WA ODETTE 2021-04-09 06:00:00 TS -14.9000 109.200 PROVISIONAL 767 765 O_____________ tcgp SH272021 -14.9000 109.200 TS 50 990 0 55 115 50 65 1001 75 20 18 113
2021095S15105 2021 17 SI WA ODETTE 2021-04-09 09:00:00 TS -15.1898 110.023 PROVISIONAL 783 778 P_____________ SH272021 -15.1898 110.023 TS 45 992 0 62 85 40 67 1000 75 22 17 114
2021095S15105 2021 17 SI WA ODETTE 2021-04-09 12:00:00 TS -15.6000 110.800 PROVISIONAL 781 689 O_____________ tcgp SH272021 -15.6000 110.800 TS 40 995 0 70 55 30 70 1000 75 25 18 126
2021095S15105 2021 17 SI WA ODETTE 2021-04-09 15:00:00 TS -16.2676 111.574 PROVISIONAL 675 569 P_____________ SH272021 -16.2676 111.574 TS 40 994 0 70 60 82 67 1000 75 25 20 138
2021095S15105 2021 17 SI WA ODETTE 2021-04-09 18:00:00 TS -17.1000 112.200 PROVISIONAL 569 470 O_____________ tcgp SH272021 -17.1000 112.200 TS 40 994 0 70 65 135 65 1000 75 25 19 150
2021095S15105 2021 17 SI WA ODETTE 2021-04-09 21:00:00 TS -17.9322 112.591 PROVISIONAL 470 368 P_____________ SH272021 -17.9322 112.591 TS 37 996 0 72 65 130 1001 75 25 19 162
2021095S15105 2021 17 SI WA ODETTE 2021-04-10 00:00:00 TS -18.9000 112.800 PROVISIONAL 358 236 O_____________ tcgp SH272021 -18.9000 112.800 TS 35 999 0 75 65 125 1003 75 25 22 169
2021095S15105 2021 17 SI WA ODETTE 2021-04-10 03:00:00 TS -20.0324 113.011 PROVISIONAL 236 129 P_____________ SH272021 -20.0324 113.011 TS 32 999 -1 1002 65 25 24 175
2021095S15105 2021 17 SI WA ODETTE 2021-04-10 06:00:00 TS -21.3000 113.000 PROVISIONAL 123 88 O_____________ tcgp SH272021 -21.3000 113.000 TD 30 1000 -1 1002 55 25 26 187
2021095S15105 2021 17 SI WA ODETTE 2021-04-10 09:00:00 TS -22.6355 112.654 PROVISIONAL 92 92 P_____________ SH272021 -22.6355 112.654 TD 30 999 -1 1002 55 27 28 197
2021095S15105 2021 17 SI WA ODETTE 2021-04-10 12:00:00 TS -24.0000 112.100 PROVISIONAL 139 O_____________ tcgp SH272021 -24.0000 112.100 TD 30 999 -1 1002 55 30 29 200

About IBTrACS Database

This database is a web-friendly format of International Best Track Archive for Climate Stewardship (IBTrACS), a global best track data archive curated by NOAA dating back to 1842.

Updated: 2021-12-06